キエフ/ボリースピリ の空港の天気 - METARとTAF

ボリースピリ国際空港(キエフ) ( UKBB / KBP ) - ウクライナ ボリスピリ (キエフ近郊)
飛行場実況気象(Metar)
観測時間02/28 02:30 EET (02/28 00:30 UTC)
風向・風速南 3m/s
視程10km以上
天気現象
なし
気温0℃
湿度100%
気圧1016hPa
METARUKBB 280030Z 17003MPS CAVOK 00/M00 Q1016 R88/D NOSIG
過去の天気等 Google飛行場航空写真 Wunderground天気予報

過去48時間のMETAR

飛行場予報(TAF)
発表時間: 2/28 01:06 EET (2/27 23:06 UTC)
予報対象時間: 28日2時 EET ~ 1日2時 EET
風向・風速南南東 3m/s
視程3,000m
天気現象もや
全天の8割程度の雲 雲底高度 300m
28日2時 EET ~ 28日9時 EET に一時的に
視程400m
天気現象氷霧
全天を覆う雲 鉛直視程 60m
28日9時 EET ~ 28日11時 EET に徐々に
風向・風速南 5m/s 瞬間風速 12m/s
視程10km以上
天気現象運行に影響にある天気現象が終了
全天の8割程度の雲 雲底高度 370m
TAF UKBB 272306Z 2800/2824 15003MPS 3000 BR BKN010
TEMPO 2800/2807 0400 FZFG VV002
BECMG 2807/2809 17005G12MPS 9999 NSW BKN012 TX10/2812Z TNM00/2801Z